sensor_id;sensor_type;location;lat;lon;timestamp;pressure;altitude;pressure_sealevel;temperature;humidity
9538;BME280;4807;48.024;11.726;2023-07-09T00:02:05;95415.19;;;18.21;68.39
9538;BME280;4807;48.024;11.726;2023-07-09T00:05:16;95409.94;;;18.15;68.21
9538;BME280;4807;48.024;11.726;2023-07-09T00:08:28;95403.59;;;18.09;69.08
9538;BME280;4807;48.024;11.726;2023-07-09T00:11:37;95406.28;;;18.09;68.96
9538;BME280;4807;48.024;11.726;2023-07-09T00:14:48;95406.41;;;18.03;69.08
9538;BME280;4807;48.024;11.726;2023-07-09T00:17:57;95403.50;;;18.04;69.09
9538;BME280;4807;48.024;11.726;2023-07-09T00:21:08;95411.13;;;17.96;69.48
9538;BME280;4807;48.024;11.726;2023-07-09T00:24:17;95412.66;;;17.91;69.48
9538;BME280;4807;48.024;11.726;2023-07-09T00:27:28;95416.63;;;17.89;69.77
9538;BME280;4807;48.024;11.726;2023-07-09T00:30:39;95419.56;;;17.87;69.74
9538;BME280;4807;48.024;11.726;2023-07-09T00:33:49;95417.56;;;17.83;69.88
9538;BME280;4807;48.024;11.726;2023-07-09T00:36:58;95419.91;;;17.79;71.65
9538;BME280;4807;48.024;11.726;2023-07-09T00:40:13;95420.38;;;17.76;71.14
9538;BME280;4807;48.024;11.726;2023-07-09T00:43:24;95415.94;;;17.82;71.03
9538;BME280;4807;48.024;11.726;2023-07-09T00:47:14;95424.13;;;17.87;70.62
9538;BME280;4807;48.024;11.726;2023-07-09T00:50:33;95424.56;;;17.84;70.11
9538;BME280;4807;48.024;11.726;2023-07-09T00:53:43;95424.47;;;17.79;70.25
9538;BME280;4807;48.024;11.726;2023-07-09T00:56:54;95428.94;;;17.73;70.77
9538;BME280;4807;48.024;11.726;2023-07-09T01:00:07;95431.03;;;17.71;71.03
9538;BME280;4807;48.024;11.726;2023-07-09T01:03:23;95437.59;;;17.75;70.63
9538;BME280;4807;48.024;11.726;2023-07-09T01:06:37;95431.25;;;17.70;70.81
9538;BME280;4807;48.024;11.726;2023-07-09T01:09:48;95426.56;;;17.77;70.35
9538;BME280;4807;48.024;11.726;2023-07-09T01:12:57;95431.47;;;17.68;70.81
9538;BME280;4807;48.024;11.726;2023-07-09T01:16:06;95435.09;;;17.50;71.44
9538;BME280;4807;48.024;11.726;2023-07-09T01:19:22;95435.66;;;17.41;71.92
9538;BME280;4807;48.024;11.726;2023-07-09T01:22:33;95434.47;;;17.37;72.08
9538;BME280;4807;48.024;11.726;2023-07-09T01:25:50;95445.94;;;17.44;72.22
9538;BME280;4807;48.024;11.726;2023-07-09T01:29:00;95436.91;;;17.38;72.56
9538;BME280;4807;48.024;11.726;2023-07-09T01:32:09;95436.09;;;17.38;72.38
9538;BME280;4807;48.024;11.726;2023-07-09T01:35:20;95440.31;;;17.34;72.48
9538;BME280;4807;48.024;11.726;2023-07-09T01:38:30;95438.06;;;17.31;72.79
9538;BME280;4807;48.024;11.726;2023-07-09T01:41:39;95437.47;;;17.29;73.10
9538;BME280;4807;48.024;11.726;2023-07-09T01:44:49;95447.56;;;17.33;72.78
9538;BME280;4807;48.024;11.726;2023-07-09T01:47:58;95437.47;;;17.29;72.43
9538;BME280;4807;48.024;11.726;2023-07-09T01:51:08;95443.09;;;17.27;73.09
9538;BME280;4807;48.024;11.726;2023-07-09T01:54:19;95446.63;;;17.39;72.26
9538;BME280;4807;48.024;11.726;2023-07-09T01:57:28;95441.75;;;17.48;72.38
9538;BME280;4807;48.024;11.726;2023-07-09T02:00:40;95448.25;;;17.29;72.22
9538;BME280;4807;48.024;11.726;2023-07-09T02:03:50;95448.44;;;17.15;72.76
9538;BME280;4807;48.024;11.726;2023-07-09T02:07:00;95452.63;;;17.11;73.51
9538;BME280;4807;48.024;11.726;2023-07-09T02:10:11;95458.72;;;17.07;73.13
9538;BME280;4807;48.024;11.726;2023-07-09T02:13:20;95466.25;;;17.16;73.05
9538;BME280;4807;48.024;11.726;2023-07-09T02:16:29;95460.59;;;17.06;73.55
9538;BME280;4807;48.024;11.726;2023-07-09T02:19:38;95461.50;;;17.00;73.79
9538;BME280;4807;48.024;11.726;2023-07-09T02:22:49;95459.84;;;16.99;73.99
9538;BME280;4807;48.024;11.726;2023-07-09T02:25:59;95460.19;;;16.91;74.29
9538;BME280;4807;48.024;11.726;2023-07-09T02:29:09;95453.47;;;16.82;75.04
9538;BME280;4807;48.024;11.726;2023-07-09T02:32:21;95465.13;;;16.76;75.11
9538;BME280;4807;48.024;11.726;2023-07-09T02:35:30;95457.50;;;16.73;75.84
9538;BME280;4807;48.024;11.726;2023-07-09T02:38:40;95467.66;;;16.71;75.24
9538;BME280;4807;48.024;11.726;2023-07-09T02:41:50;95460.97;;;16.62;76.05
9538;BME280;4807;48.024;11.726;2023-07-09T02:44:59;95457.38;;;16.68;75.47
9538;BME280;4807;48.024;11.726;2023-07-09T02:48:10;95471.88;;;16.67;75.79
9538;BME280;4807;48.024;11.726;2023-07-09T02:51:20;95466.78;;;16.59;75.40
9538;BME280;4807;48.024;11.726;2023-07-09T02:54:29;95472.91;;;16.66;75.00
9538;BME280;4807;48.024;11.726;2023-07-09T02:57:39;95472.78;;;16.61;74.70
9538;BME280;4807;48.024;11.726;2023-07-09T03:00:49;95479.91;;;16.49;76.03
9538;BME280;4807;48.024;11.726;2023-07-09T03:04:00;95475.44;;;16.42;75.88
9538;BME280;4807;48.024;11.726;2023-07-09T03:07:11;95474.38;;;16.44;76.74
9538;BME280;4807;48.024;11.726;2023-07-09T03:10:19;95477.69;;;16.46;76.69
9538;BME280;4807;48.024;11.726;2023-07-09T03:13:29;95477.38;;;16.35;77.04
9538;BME280;4807;48.024;11.726;2023-07-09T03:16:38;95469.91;;;16.37;77.48
9538;BME280;4807;48.024;11.726;2023-07-09T03:19:47;95477.38;;;16.35;77.72
9538;BME280;4807;48.024;11.726;2023-07-09T03:22:55;95482.88;;;16.40;77.82
9538;BME280;4807;48.024;11.726;2023-07-09T03:26:04;95482.66;;;16.42;77.62
9538;BME280;4807;48.024;11.726;2023-07-09T03:29:15;95487.00;;;16.43;77.19
9538;BME280;4807;48.024;11.726;2023-07-09T03:32:23;95486.19;;;16.42;77.15
9538;BME280;4807;48.024;11.726;2023-07-09T03:35:32;95489.47;;;16.45;77.01
9538;BME280;4807;48.024;11.726;2023-07-09T03:38:42;95499.19;;;16.46;77.26
9538;BME280;4807;48.024;11.726;2023-07-09T03:41:50;95489.63;;;16.50;77.48
9538;BME280;4807;48.024;11.726;2023-07-09T03:45:00;95495.94;;;16.55;77.21
9538;BME280;4807;48.024;11.726;2023-07-09T03:48:09;95499.03;;;16.59;76.84
9538;BME280;4807;48.024;11.726;2023-07-09T03:51:17;95505.63;;;16.63;76.72
9538;BME280;4807;48.024;11.726;2023-07-09T03:54:26;95496.06;;;16.67;76.36
9538;BME280;4807;48.024;11.726;2023-07-09T03:57:35;95492.03;;;16.76;76.13
9538;BME280;4807;48.024;11.726;2023-07-09T04:00:45;95495.31;;;16.78;76.08
9538;BME280;4807;48.024;11.726;2023-07-09T04:03:53;95494.63;;;16.83;76.79
9538;BME280;4807;48.024;11.726;2023-07-09T04:07:02;95500.53;;;16.91;76.49
9538;BME280;4807;48.024;11.726;2023-07-09T04:10:11;95496.69;;;16.99;75.61
9538;BME280;4807;48.024;11.726;2023-07-09T04:13:20;95496.97;;;17.09;75.54
9538;BME280;4807;48.024;11.726;2023-07-09T04:16:29;95500.63;;;17.14;75.38
9538;BME280;4807;48.024;11.726;2023-07-09T04:19:38;95506.28;;;17.25;74.51
9538;BME280;4807;48.024;11.726;2023-07-09T04:22:47;95503.72;;;17.30;74.83
9538;BME280;4807;48.024;11.726;2023-07-09T04:25:55;95510.19;;;17.40;74.26
9538;BME280;4807;48.024;11.726;2023-07-09T04:29:05;95506.38;;;17.60;73.57
9538;BME280;4807;48.024;11.726;2023-07-09T04:32:15;95503.63;;;17.66;73.36
9538;BME280;4807;48.024;11.726;2023-07-09T04:35:24;95504.78;;;17.70;73.06
9538;BME280;4807;48.024;11.726;2023-07-09T04:38:33;95508.69;;;17.74;73.16
9538;BME280;4807;48.024;11.726;2023-07-09T04:41:42;95519.34;;;17.81;72.66
9538;BME280;4807;48.024;11.726;2023-07-09T04:44:51;95520.06;;;17.88;72.81
9538;BME280;4807;48.024;11.726;2023-07-09T04:48:00;95516.78;;;17.98;72.60
9538;BME280;4807;48.024;11.726;2023-07-09T04:51:09;95512.09;;;18.05;72.39
9538;BME280;4807;48.024;11.726;2023-07-09T04:54:17;95512.91;;;18.17;71.51
9538;BME280;4807;48.024;11.726;2023-07-09T04:57:27;95517.84;;;18.32;71.61
9538;BME280;4807;48.024;11.726;2023-07-09T05:00:35;95507.66;;;18.45;70.80
9538;BME280;4807;48.024;11.726;2023-07-09T05:03:45;95506.13;;;18.61;70.70
9538;BME280;4807;48.024;11.726;2023-07-09T05:06:54;95512.06;;;18.75;70.02
9538;BME280;4807;48.024;11.726;2023-07-09T05:10:02;95504.28;;;18.90;69.40
9538;BME280;4807;48.024;11.726;2023-07-09T05:13:11;95507.66;;;19.09;69.42
9538;BME280;4807;48.024;11.726;2023-07-09T05:16:20;95518.84;;;19.29;68.56
9538;BME280;4807;48.024;11.726;2023-07-09T05:19:30;95521.00;;;19.43;68.12
9538;BME280;4807;48.024;11.726;2023-07-09T05:22:39;95515.91;;;19.59;67.27
9538;BME280;4807;48.024;11.726;2023-07-09T05:25:48;95521.81;;;19.72;66.83
9538;BME280;4807;48.024;11.726;2023-07-09T05:28:56;95524.53;;;19.89;66.66
9538;BME280;4807;48.024;11.726;2023-07-09T05:32:06;95525.59;;;20.05;66.34
9538;BME280;4807;48.024;11.726;2023-07-09T05:35:16;95523.00;;;20.27;65.46
9538;BME280;4807;48.024;11.726;2023-07-09T05:38:25;95524.91;;;20.43;65.33
9538;BME280;4807;48.024;11.726;2023-07-09T05:41:33;95525.22;;;20.68;64.32
9538;BME280;4807;48.024;11.726;2023-07-09T05:44:42;95529.25;;;20.82;63.73
9538;BME280;4807;48.024;11.726;2023-07-09T05:47:51;95534.66;;;21.04;62.72
9538;BME280;4807;48.024;11.726;2023-07-09T05:51:01;95530.41;;;21.30;62.10
9538;BME280;4807;48.024;11.726;2023-07-09T05:54:10;95541.44;;;21.50;61.65
9538;BME280;4807;48.024;11.726;2023-07-09T05:57:19;95540.06;;;21.75;59.74
9538;BME280;4807;48.024;11.726;2023-07-09T06:00:28;95538.06;;;21.92;59.24
9538;BME280;4807;48.024;11.726;2023-07-09T06:03:37;95543.78;;;22.22;58.36
9538;BME280;4807;48.024;11.726;2023-07-09T06:06:48;95539.00;;;22.34;58.06
9538;BME280;4807;48.024;11.726;2023-07-09T06:09:56;95540.19;;;22.49;56.93
9538;BME280;4807;48.024;11.726;2023-07-09T06:13:05;95531.06;;;22.65;57.28
9538;BME280;4807;48.024;11.726;2023-07-09T06:16:14;95547.78;;;22.83;56.56
9538;BME280;4807;48.024;11.726;2023-07-09T06:19:23;95539.53;;;23.20;55.30
9538;BME280;4807;48.024;11.726;2023-07-09T06:22:33;95547.81;;;25.33;50.93
9538;BME280;4807;48.024;11.726;2023-07-09T06:25:42;95545.09;;;28.22;43.47
9538;BME280;4807;48.024;11.726;2023-07-09T06:28:54;95548.44;;;30.57;37.52
9538;BME280;4807;48.024;11.726;2023-07-09T06:32:03;95543.38;;;31.26;34.26
9538;BME280;4807;48.024;11.726;2023-07-09T06:35:11;95544.56;;;32.93;32.75
9538;BME280;4807;48.024;11.726;2023-07-09T06:38:22;95546.16;;;33.58;31.09
9538;BME280;4807;48.024;11.726;2023-07-09T06:41:30;95541.75;;;33.57;30.89
9538;BME280;4807;48.024;11.726;2023-07-09T06:44:48;95546.09;;;33.76;29.72
9538;BME280;4807;48.024;11.726;2023-07-09T06:47:56;95543.44;;;34.71;28.83
9538;BME280;4807;48.024;11.726;2023-07-09T06:51:05;95542.88;;;34.44;29.90
9538;BME280;4807;48.024;11.726;2023-07-09T06:54:15;95537.72;;;35.21;27.06
9538;BME280;4807;48.024;11.726;2023-07-09T06:57:24;95539.28;;;36.16;25.59
9538;BME280;4807;48.024;11.726;2023-07-09T07:00:34;95536.09;;;36.82;26.20
9538;BME280;4807;48.024;11.726;2023-07-09T07:03:42;95536.59;;;37.27;25.20
9538;BME280;4807;48.024;11.726;2023-07-09T07:06:51;95539.16;;;36.12;25.23
9538;BME280;4807;48.024;11.726;2023-07-09T07:10:01;95532.84;;;36.24;24.92
9538;BME280;4807;48.024;11.726;2023-07-09T07:13:10;95540.78;;;36.13;25.93
9538;BME280;4807;48.024;11.726;2023-07-09T07:16:19;95535.28;;;37.09;24.34
9538;BME280;4807;48.024;11.726;2023-07-09T07:19:28;95533.47;;;37.76;24.59
9538;BME280;4807;48.024;11.726;2023-07-09T07:22:37;95536.09;;;38.04;23.55
9538;BME280;4807;48.024;11.726;2023-07-09T07:25:47;95538.81;;;38.51;22.62
9538;BME280;4807;48.024;11.726;2023-07-09T07:28:56;95532.22;;;38.43;23.22
9538;BME280;4807;48.024;11.726;2023-07-09T07:32:05;95537.47;;;38.64;22.31
9538;BME280;4807;48.024;11.726;2023-07-09T07:35:14;95533.09;;;38.63;22.21
9538;BME280;4807;48.024;11.726;2023-07-09T07:38:24;95519.97;;;38.09;21.41
9538;BME280;4807;48.024;11.726;2023-07-09T07:41:34;95527.06;;;38.07;22.24
9538;BME280;4807;48.024;11.726;2023-07-09T07:44:43;95526.09;;;36.37;22.68
9538;BME280;4807;48.024;11.726;2023-07-09T07:47:51;95525.31;;;31.42;29.21
9538;BME280;4807;48.024;11.726;2023-07-09T07:51:00;95519.88;;;34.53;25.76
9538;BME280;4807;48.024;11.726;2023-07-09T07:54:10;95517.63;;;34.67;25.19
9538;BME280;4807;48.024;11.726;2023-07-09T07:57:23;95514.50;;;36.47;24.85
9538;BME280;4807;48.024;11.726;2023-07-09T08:00:32;95510.16;;;34.46;25.43
9538;BME280;4807;48.024;11.726;2023-07-09T08:03:41;95511.50;;;34.94;27.15
9538;BME280;4807;48.024;11.726;2023-07-09T08:06:50;95506.28;;;33.77;26.67
9538;BME280;4807;48.024;11.726;2023-07-09T08:09:59;95506.84;;;32.42;29.44
9538;BME280;4807;48.024;11.726;2023-07-09T08:13:09;95505.56;;;32.22;28.39
9538;BME280;4807;48.024;11.726;2023-07-09T08:16:18;95507.25;;;33.81;26.28
9538;BME280;4807;48.024;11.726;2023-07-09T08:19:27;95509.63;;;34.32;26.34
9538;BME280;4807;48.024;11.726;2023-07-09T08:22:36;95503.22;;;31.25;29.78
9538;BME280;4807;48.024;11.726;2023-07-09T08:25:52;95511.34;;;30.46;30.09
9538;BME280;4807;48.024;11.726;2023-07-09T08:29:03;95508.47;;;30.51;30.63
9538;BME280;4807;48.024;11.726;2023-07-09T08:32:12;95503.44;;;33.18;27.54
9538;BME280;4807;48.024;11.726;2023-07-09T08:35:21;95501.19;;;32.39;27.40
9538;BME280;4807;48.024;11.726;2023-07-09T08:38:43;95500.97;;;32.78;27.70
9538;BME280;4807;48.024;11.726;2023-07-09T08:41:56;95503.56;;;34.39;26.19
9538;BME280;4807;48.024;11.726;2023-07-09T08:45:24;95503.34;;;35.22;24.06
9538;BME280;4807;48.024;11.726;2023-07-09T08:48:40;95497.25;;;36.02;22.72
9538;BME280;4807;48.024;11.726;2023-07-09T08:51:51;95491.50;;;35.70;21.94
9538;BME280;4807;48.024;11.726;2023-07-09T08:55:08;95493.91;;;37.04;21.94
9538;BME280;4807;48.024;11.726;2023-07-09T08:58:21;95486.25;;;36.29;21.32
9538;BME280;4807;48.024;11.726;2023-07-09T09:01:37;95485.31;;;35.73;24.09
9538;BME280;4807;48.024;11.726;2023-07-09T09:04:48;95486.75;;;36.19;22.55
9538;BME280;4807;48.024;11.726;2023-07-09T09:08:01;95490.25;;;35.80;23.10
9538;BME280;4807;48.024;11.726;2023-07-09T09:11:20;95482.66;;;33.29;24.36
9538;BME280;4807;48.024;11.726;2023-07-09T09:14:33;95489.44;;;33.61;25.21
9538;BME280;4807;48.024;11.726;2023-07-09T09:17:43;95493.41;;;34.64;24.73
9538;BME280;4807;48.024;11.726;2023-07-09T09:20:57;95492.97;;;34.20;25.47
9538;BME280;4807;48.024;11.726;2023-07-09T09:24:14;95495.81;;;32.08;27.94
9538;BME280;4807;48.024;11.726;2023-07-09T09:27:23;95495.41;;;31.58;30.10
9538;BME280;4807;48.024;11.726;2023-07-09T09:30:32;95485.28;;;31.84;28.50
9538;BME280;4807;48.024;11.726;2023-07-09T09:33:44;95488.03;;;33.08;27.17
9538;BME280;4807;48.024;11.726;2023-07-09T09:36:53;95489.66;;;33.85;25.89
9538;BME280;4807;48.024;11.726;2023-07-09T09:40:04;95491.47;;;34.02;25.08
9538;BME280;4807;48.024;11.726;2023-07-09T09:43:24;95498.25;;;34.34;25.31
9538;BME280;4807;48.024;11.726;2023-07-09T09:46:39;95483.38;;;33.47;23.70
9538;BME280;4807;48.024;11.726;2023-07-09T09:49:53;95486.53;;;33.57;25.89
9538;BME280;4807;48.024;11.726;2023-07-09T09:53:01;95489.16;;;33.24;26.79
9538;BME280;4807;48.024;11.726;2023-07-09T09:56:14;95489.63;;;33.26;26.22
9538;BME280;4807;48.024;11.726;2023-07-09T09:59:29;95483.47;;;31.88;27.74
9538;BME280;4807;48.024;11.726;2023-07-09T10:02:40;95494.03;;;32.29;29.28
9538;BME280;4807;48.024;11.726;2023-07-09T10:05:52;95502.28;;;31.38;28.80
9538;BME280;4807;48.024;11.726;2023-07-09T10:09:12;95487.66;;;31.12;29.52
9538;BME280;4807;48.024;11.726;2023-07-09T10:12:36;95488.19;;;32.05;27.93
9538;BME280;4807;48.024;11.726;2023-07-09T10:15:56;95487.34;;;32.65;28.24
9538;BME280;4807;48.024;11.726;2023-07-09T10:19:19;95488.34;;;31.91;26.35
9538;BME280;4807;48.024;11.726;2023-07-09T10:22:40;95482.56;;;32.18;26.59
9538;BME280;4807;48.024;11.726;2023-07-09T10:25:53;95489.94;;;32.78;26.02
9538;BME280;4807;48.024;11.726;2023-07-09T10:29:23;95492.41;;;32.54;27.52
9538;BME280;4807;48.024;11.726;2023-07-09T10:32:42;95486.56;;;32.47;26.80
9538;BME280;4807;48.024;11.726;2023-07-09T10:36:02;95488.81;;;32.53;25.88
9538;BME280;4807;48.024;11.726;2023-07-09T10:39:21;95480.69;;;32.83;27.51
9538;BME280;4807;48.024;11.726;2023-07-09T10:42:35;95490.69;;;32.96;25.65
9538;BME280;4807;48.024;11.726;2023-07-09T10:45:49;95489.19;;;32.17;25.60
9538;BME280;4807;48.024;11.726;2023-07-09T10:49:03;95489.16;;;31.83;26.04
9538;BME280;4807;48.024;11.726;2023-07-09T10:52:21;95482.47;;;31.10;26.67
9538;BME280;4807;48.024;11.726;2023-07-09T10:55:41;95477.88;;;31.36;26.92
9538;BME280;4807;48.024;11.726;2023-07-09T10:58:56;95482.50;;;32.44;30.43
9538;BME280;4807;48.024;11.726;2023-07-09T11:02:25;95484.41;;;32.78;26.49
9538;BME280;4807;48.024;11.726;2023-07-09T11:05:35;95479.41;;;32.63;26.41
9538;BME280;4807;48.024;11.726;2023-07-09T11:08:45;95476.84;;;32.06;27.25
9538;BME280;4807;48.024;11.726;2023-07-09T11:12:00;95478.50;;;31.33;26.92
9538;BME280;4807;48.024;11.726;2023-07-09T11:15:14;95464.69;;;31.99;28.54
9538;BME280;4807;48.024;11.726;2023-07-09T11:18:26;95468.28;;;32.34;27.82
9538;BME280;4807;48.024;11.726;2023-07-09T11:21:44;95463.28;;;32.18;27.14
9538;BME280;4807;48.024;11.726;2023-07-09T11:25:07;95468.59;;;32.41;26.15
9538;BME280;4807;48.024;11.726;2023-07-09T11:28:33;95465.00;;;32.14;26.62
9538;BME280;4807;48.024;11.726;2023-07-09T11:31:45;95465.31;;;32.56;26.84
9538;BME280;4807;48.024;11.726;2023-07-09T11:35:06;95457.66;;;33.17;26.01
9538;BME280;4807;48.024;11.726;2023-07-09T11:38:20;95456.06;;;33.16;27.59
9538;BME280;4807;48.024;11.726;2023-07-09T11:41:38;95462.91;;;33.48;27.76
9538;BME280;4807;48.024;11.726;2023-07-09T11:44:51;95457.69;;;33.76;25.97
9538;BME280;4807;48.024;11.726;2023-07-09T11:48:13;95453.78;;;33.97;25.11
9538;BME280;4807;48.024;11.726;2023-07-09T11:51:41;95455.97;;;34.33;24.98
9538;BME280;4807;48.024;11.726;2023-07-09T11:54:52;95441.72;;;33.81;25.26
9538;BME280;4807;48.024;11.726;2023-07-09T11:58:03;95438.09;;;33.01;25.01
9538;BME280;4807;48.024;11.726;2023-07-09T12:01:16;95431.72;;;32.63;27.75
9538;BME280;4807;48.024;11.726;2023-07-09T12:04:30;95431.03;;;32.91;26.02
9538;BME280;4807;48.024;11.726;2023-07-09T12:07:40;95435.00;;;33.03;25.71
9538;BME280;4807;48.024;11.726;2023-07-09T12:10:49;95426.44;;;32.95;24.98
9538;BME280;4807;48.024;11.726;2023-07-09T12:14:03;95421.03;;;32.61;24.22
9538;BME280;4807;48.024;11.726;2023-07-09T12:17:14;95425.00;;;32.08;26.46
9538;BME280;4807;48.024;11.726;2023-07-09T12:20:22;95416.41;;;32.01;26.37
9538;BME280;4807;48.024;11.726;2023-07-09T12:23:33;95407.97;;;32.06;26.29
9538;BME280;4807;48.024;11.726;2023-07-09T12:26:43;95406.38;;;31.71;26.42
9538;BME280;4807;48.024;11.726;2023-07-09T12:29:57;95409.28;;;31.66;27.40
9538;BME280;4807;48.024;11.726;2023-07-09T12:33:08;95407.50;;;31.61;25.92
9538;BME280;4807;48.024;11.726;2023-07-09T12:36:18;95404.84;;;31.47;27.28
9538;BME280;4807;48.024;11.726;2023-07-09T12:39:29;95396.94;;;31.37;27.06
9538;BME280;4807;48.024;11.726;2023-07-09T12:42:40;95390.50;;;31.68;25.93
9538;BME280;4807;48.024;11.726;2023-07-09T12:45:50;95397.22;;;32.48;26.59
9538;BME280;4807;48.024;11.726;2023-07-09T12:49:00;95392.25;;;32.88;24.92
9538;BME280;4807;48.024;11.726;2023-07-09T12:52:15;95394.78;;;32.46;24.49
9538;BME280;4807;48.024;11.726;2023-07-09T12:55:27;95384.13;;;32.91;25.59
9538;BME280;4807;48.024;11.726;2023-07-09T12:58:38;95379.63;;;32.78;25.57
9538;BME280;4807;48.024;11.726;2023-07-09T13:01:51;95392.53;;;32.95;25.95
9538;BME280;4807;48.024;11.726;2023-07-09T13:05:13;95378.88;;;32.52;24.88
9538;BME280;4807;48.024;11.726;2023-07-09T13:08:25;95384.13;;;32.28;26.13
9538;BME280;4807;48.024;11.726;2023-07-09T13:11:35;95384.59;;;32.47;25.13
9538;BME280;4807;48.024;11.726;2023-07-09T13:14:52;95374.75;;;32.20;25.44
9538;BME280;4807;48.024;11.726;2023-07-09T13:18:06;95372.66;;;32.08;25.51
9538;BME280;4807;48.024;11.726;2023-07-09T13:21:18;95369.59;;;32.18;24.99
9538;BME280;4807;48.024;11.726;2023-07-09T13:24:29;95371.16;;;32.37;26.04
9538;BME280;4807;48.024;11.726;2023-07-09T13:27:38;95362.94;;;32.75;24.72
9538;BME280;4807;48.024;11.726;2023-07-09T13:30:47;95376.69;;;32.83;24.27
9538;BME280;4807;48.024;11.726;2023-07-09T13:33:59;95365.44;;;32.97;25.14
9538;BME280;4807;48.024;11.726;2023-07-09T13:37:13;95365.44;;;32.97;24.77
9538;BME280;4807;48.024;11.726;2023-07-09T13:40:23;95360.34;;;32.70;24.31
9538;BME280;4807;48.024;11.726;2023-07-09T13:43:34;95375.25;;;32.77;25.40
9538;BME280;4807;48.024;11.726;2023-07-09T13:46:43;95374.59;;;33.10;26.10
9538;BME280;4807;48.024;11.726;2023-07-09T13:49:52;95369.16;;;33.30;24.78
9538;BME280;4807;48.024;11.726;2023-07-09T13:53:02;95365.00;;;33.45;24.04
9538;BME280;4807;48.024;11.726;2023-07-09T13:56:11;95362.09;;;33.12;24.99
9538;BME280;4807;48.024;11.726;2023-07-09T13:59:22;95364.84;;;33.12;25.17
9538;BME280;4807;48.024;11.726;2023-07-09T14:02:32;95366.53;;;33.05;23.79
9538;BME280;4807;48.024;11.726;2023-07-09T14:05:41;95353.88;;;32.74;24.77
9538;BME280;4807;48.024;11.726;2023-07-09T14:08:52;95361.84;;;32.96;24.36
9538;BME280;4807;48.024;11.726;2023-07-09T14:12:00;95364.56;;;33.34;24.61
9538;BME280;4807;48.024;11.726;2023-07-09T14:15:13;95357.38;;;33.42;25.58
9538;BME280;4807;48.024;11.726;2023-07-09T14:18:23;95352.47;;;33.68;25.23
9538;BME280;4807;48.024;11.726;2023-07-09T14:21:32;95357.66;;;33.91;25.23
9538;BME280;4807;48.024;11.726;2023-07-09T14:24:44;95352.00;;;34.20;24.46
9538;BME280;4807;48.024;11.726;2023-07-09T14:27:53;95346.13;;;33.47;23.09
9538;BME280;4807;48.024;11.726;2023-07-09T14:31:02;95347.06;;;33.51;24.12
9538;BME280;4807;48.024;11.726;2023-07-09T14:34:21;95347.06;;;33.72;23.78
9538;BME280;4807;48.024;11.726;2023-07-09T14:37:30;95339.34;;;33.24;24.02
9538;BME280;4807;48.024;11.726;2023-07-09T14:40:41;95336.28;;;32.87;24.69
9538;BME280;4807;48.024;11.726;2023-07-09T14:43:49;95338.06;;;32.37;25.11
9538;BME280;4807;48.024;11.726;2023-07-09T14:46:59;95335.84;;;32.21;25.73
9538;BME280;4807;48.024;11.726;2023-07-09T14:50:09;95337.19;;;31.90;25.57
9538;BME280;4807;48.024;11.726;2023-07-09T14:53:23;95337.06;;;31.69;25.94
9538;BME280;4807;48.024;11.726;2023-07-09T14:56:35;95334.94;;;31.57;26.15
9538;BME280;4807;48.024;11.726;2023-07-09T14:59:43;95347.59;;;31.67;26.34
9538;BME280;4807;48.024;11.726;2023-07-09T15:02:53;95340.59;;;31.61;26.69
9538;BME280;4807;48.024;11.726;2023-07-09T15:06:02;95336.38;;;31.46;27.44
9538;BME280;4807;48.024;11.726;2023-07-09T15:09:11;95324.13;;;31.69;26.76
9538;BME280;4807;48.024;11.726;2023-07-09T15:12:26;95331.50;;;32.03;26.35
9538;BME280;4807;48.024;11.726;2023-07-09T15:15:36;95329.38;;;32.09;26.51
9538;BME280;4807;48.024;11.726;2023-07-09T15:18:45;95319.81;;;32.24;25.43
9538;BME280;4807;48.024;11.726;2023-07-09T15:21:55;95316.22;;;32.32;25.33
9538;BME280;4807;48.024;11.726;2023-07-09T15:25:05;95321.72;;;32.32;26.05
9538;BME280;4807;48.024;11.726;2023-07-09T15:28:18;95324.28;;;32.37;26.30
9538;BME280;4807;48.024;11.726;2023-07-09T15:31:27;95319.75;;;32.41;26.15
9538;BME280;4807;48.024;11.726;2023-07-09T15:34:36;95313.47;;;32.32;25.60
9538;BME280;4807;48.024;11.726;2023-07-09T15:37:45;95311.25;;;32.16;26.02
9538;BME280;4807;48.024;11.726;2023-07-09T15:40:56;95305.84;;;32.29;24.60
9538;BME280;4807;48.024;11.726;2023-07-09T15:44:09;95303.84;;;32.46;25.25
9538;BME280;4807;48.024;11.726;2023-07-09T15:47:27;95308.66;;;32.03;25.00
9538;BME280;4807;48.024;11.726;2023-07-09T15:50:37;95295.44;;;31.70;24.98
9538;BME280;4807;48.024;11.726;2023-07-09T15:53:45;95307.41;;;31.83;25.99
9538;BME280;4807;48.024;11.726;2023-07-09T15:56:54;95308.19;;;32.01;25.73
9538;BME280;4807;48.024;11.726;2023-07-09T16:00:16;95300.84;;;32.13;25.50
9538;BME280;4807;48.024;11.726;2023-07-09T16:03:26;95303.59;;;32.22;25.91
9538;BME280;4807;48.024;11.726;2023-07-09T16:06:35;95292.59;;;32.13;24.59
9538;BME280;4807;48.024;11.726;2023-07-09T16:09:46;95293.09;;;32.15;26.69
9538;BME280;4807;48.024;11.726;2023-07-09T16:12:55;95302.66;;;32.09;24.62
9538;BME280;4807;48.024;11.726;2023-07-09T16:16:06;95297.31;;;32.04;27.24
9538;BME280;4807;48.024;11.726;2023-07-09T16:19:15;95296.06;;;31.93;26.13
9538;BME280;4807;48.024;11.726;2023-07-09T16:22:24;95295.38;;;31.96;24.97
9538;BME280;4807;48.024;11.726;2023-07-09T16:25:35;95299.25;;;31.95;26.86
9538;BME280;4807;48.024;11.726;2023-07-09T16:28:44;95301.69;;;31.97;24.56
9538;BME280;4807;48.024;11.726;2023-07-09T16:31:55;95298.31;;;31.91;24.83
9538;BME280;4807;48.024;11.726;2023-07-09T16:35:05;95293.31;;;31.93;24.83
9538;BME280;4807;48.024;11.726;2023-07-09T16:38:14;95289.91;;;31.79;25.52
9538;BME280;4807;48.024;11.726;2023-07-09T16:41:22;95282.31;;;31.59;25.06
9538;BME280;4807;48.024;11.726;2023-07-09T16:44:31;95286.22;;;31.66;26.97
9538;BME280;4807;48.024;11.726;2023-07-09T16:47:41;95283.44;;;32.39;24.61
9538;BME280;4807;48.024;11.726;2023-07-09T16:50:52;95288.09;;;33.56;22.57
9538;BME280;4807;48.024;11.726;2023-07-09T16:54:01;95281.31;;;35.29;21.24
9538;BME280;4807;48.024;11.726;2023-07-09T16:57:14;95289.09;;;36.66;19.41
9538;BME280;4807;48.024;11.726;2023-07-09T17:00:26;95295.84;;;37.31;18.60
9538;BME280;4807;48.024;11.726;2023-07-09T17:03:37;95295.19;;;37.73;18.14
9538;BME280;4807;48.024;11.726;2023-07-09T17:06:46;95292.09;;;37.97;17.79